Time;durP1;ratioP1;P1;durP2;ratioP2;P2;SDS_P1;SDS_P2;PMS_P1;PMS_P2;Temp;Humidity;BMP_temperature;BMP_pressure;BME280_temperature;BME280_humidity;BME280_pressure;Samples;Min_cycle;Max_cycle;Signal;HPM_P1;HPM_P2
2023/10/19 00:02:19;;;;;;;1.08;1.08;;;;;;;8.72;100.00;100663.06;4955632;28;20046;-77
2023/10/19 00:08:17;;;;;;;6.13;4.63;;;;;;;9.01;100.00;100714.84;4956030;28;20530;-77
2023/10/19 00:10:47;;;;;;;0.30;0.30;;;;;;;9.09;100.00;100755.09;4955364;28;20058;-76
2023/10/19 00:13:13;;;;;;;4.13;1.25;;;;;;;8.84;100.00;100696.34;4955237;28;20043;-75
2023/10/19 00:15:40;;;;;;;6.78;6.20;;;;;;;9.09;100.00;100749.84;4955134;28;20035;-76
2023/10/19 00:18:34;;;;;;;3.95;3.60;;;;;;;8.94;100.00;100753.16;4955046;28;20045;-76
2023/10/19 00:20:59;;;;;;;6.70;6.10;;;;;;;8.95;100.00;100757.53;4955211;28;20113;-77
2023/10/19 00:23:31;;;;;;;5.22;4.15;;;;;;;8.27;100.00;100611.06;4968378;28;20031;-75
2023/10/19 00:29:32;;;;;;;0.20;0.20;;;;;;;9.07;100.00;100739.34;4975209;28;20053;-76
2023/10/19 00:35:34;;;;;;;39.78;13.68;;;;;;;8.49;100.00;100707.25;4975149;28;20058;-77
2023/10/19 00:38:21;;;;;;;4.50;4.10;;;;;;;8.48;100.00;100717.72;4974247;28;20054;-75
2023/10/19 00:40:53;;;;;;;0.45;0.45;;;;;;;8.56;100.00;100716.06;4974705;28;20067;-78
2023/10/19 00:43:32;;;;;;;15.95;7.68;;;;;;;8.72;100.00;100731.09;4974204;28;20129;-76
2023/10/19 00:45:58;;;;;;;1.15;1.05;;;;;;;8.94;100.00;100734.84;4974073;28;20038;-78
2023/10/19 00:48:26;;;;;;;1.38;0.60;;;;;;;8.44;100.00;100614.78;4988731;28;20046;-76
2023/10/19 00:51:06;;;;;;;1.85;1.00;;;;;;;8.50;100.00;100622.72;4974078;28;20347;-76
2023/10/19 00:53:41;;;;;;;8.35;4.50;;;;;;;8.70;100.00;100640.38;4974299;28;20038;-75
2023/10/19 00:56:09;;;;;;;8.18;7.78;;;;;;;9.02;100.00;100720.13;4973978;28;20093;-76
2023/10/19 00:58:39;;;;;;;13.15;6.22;;;;;;;8.22;100.00;100618.84;4974062;28;20042;-76
2023/10/19 01:04:32;;;;;;;0.30;0.30;;;;;;;9.02;100.00;100717.50;4973847;28;20041;-76
2023/10/19 01:10:23;;;;;;;9.07;6.75;;;;;;;8.49;100.00;100602.63;4974086;28;20066;-76
2023/10/19 01:16:20;;;;;;;0.20;0.20;;;;;;;8.24;100.00;100620.63;4977978;28;20514;-74
2023/10/19 01:18:55;;;;;;;3.42;3.33;;;;;;;8.05;100.00;100616.00;4977543;28;20591;-75
2023/10/19 01:21:37;;;;;;;1.50;1.40;;;;;;;8.62;100.00;100701.31;4977799;28;20035;-75
2023/10/19 01:27:24;;;;;;;0.95;0.95;;;;;;;8.80;100.00;100710.25;4977950;28;20098;-75
2023/10/19 01:33:15;;;;;;;2.10;2.03;;;;;;;8.64;100.00;100714.44;4977893;28;20037;-74
2023/10/19 01:39:09;;;;;;;0.45;0.45;;;;;;;8.75;100.00;100715.41;4978009;28;20126;-76
2023/10/19 01:41:34;;;;;;;0.63;0.63;;;;;;;7.77;100.00;100601.66;4978102;28;20094;-76
2023/10/19 01:44:13;;;;;;;0.95;0.95;;;;;;;8.27;100.00;100655.50;4977231;28;20419;-76
2023/10/19 01:46:39;;;;;;;0.88;0.88;;;;;;;8.42;100.00;100689.72;4977138;28;20456;-77
2023/10/19 01:49:05;;;;;;;8.68;6.13;;;;;;;8.47;100.00;100693.25;4977271;28;20392;-75
2023/10/19 01:54:58;;;;;;;0.28;0.28;;;;;;;7.73;100.00;100574.66;4977254;28;20534;-76
2023/10/19 01:57:25;;;;;;;2.22;0.85;;;;;;;8.52;100.00;100699.47;4977166;28;20122;-77
2023/10/19 01:59:51;;;;;;;1.83;1.73;;;;;;;8.53;100.00;100695.09;4977119;28;20511;-77
2023/10/19 02:02:16;;;;;;;7.20;6.03;;;;;;;8.32;100.00;100677.34;4977165;28;20034;-75
2023/10/19 02:08:04;;;;;;;0.82;0.82;;;;;;;7.44;100.00;100589.88;4977586;28;20038;-77
2023/10/19 02:13:54;;;;;;;5.10;4.80;;;;;;;7.47;100.00;100600.38;4976907;28;20074;-78
2023/10/19 02:16:22;;;;;;;0.52;0.52;;;;;;;8.12;100.00;100717.16;4976548;28;20043;-75
2023/10/19 02:22:11;;;;;;;0.40;0.40;;;;;;;7.72;100.00;100601.59;4976134;28;20418;-75
2023/10/19 02:24:38;;;;;;;4.18;3.97;;;;;;;8.50;100.00;100718.56;4976363;28;20162;-75
2023/10/19 02:27:04;;;;;;;1.90;1.80;;;;;;;7.94;100.00;100622.84;4975488;28;20027;-77
2023/10/19 02:32:53;;;;;;;0.45;0.45;;;;;;;7.96;100.00;100707.31;4977137;28;20086;-76
2023/10/19 02:35:44;;;;;;;3.53;3.33;;;;;;;8.10;100.00;100712.75;4991842;28;20117;-77
2023/10/19 02:38:09;;;;;;;4.13;3.83;;;;;;;8.28;100.00;100692.09;4975939;28;20050;-76
2023/10/19 02:40:37;;;;;;;1.02;0.98;;;;;;;8.31;100.00;100700.03;4976035;28;20467;-76
2023/10/19 02:43:04;;;;;;;0.25;0.25;;;;;;;7.26;100.00;100568.69;4976089;28;20039;-76
2023/10/19 02:45:30;;;;;;;11.48;5.05;;;;;;;7.02;100.00;100536.13;4976318;28;20415;-76
2023/10/19 02:47:58;;;;;;;7.40;6.05;;;;;;;7.63;100.00;100601.47;4975715;28;20092;-76
2023/10/19 02:50:26;;;;;;;1.05;1.00;;;;;;;8.41;100.00;100716.75;4976225;28;20026;-76
2023/10/19 02:52:53;;;;;;;6.10;5.57;;;;;;;7.62;100.00;100610.16;4975756;28;20405;-76
2023/10/19 02:58:48;;;;;;;2.78;2.67;;;;;;;8.35;100.00;100704.41;4976169;28;20383;-77
2023/10/19 03:01:24;;;;;;;1.05;1.05;;;;;;;7.87;100.00;100639.28;4975499;28;20038;-75
2023/10/19 03:03:54;;;;;;;7.03;6.63;;;;;;;7.52;100.00;100621.34;4976062;28;20042;-75
2023/10/19 03:09:54;;;;;;;6.03;5.53;;;;;;;7.85;100.00;100600.06;4976067;28;20038;-76
2023/10/19 03:15:42;;;;;;;0.30;0.30;;;;;;;8.22;100.00;100685.06;4975923;28;20041;-77
2023/10/19 03:21:34;;;;;;;2.08;1.50;;;;;;;8.06;100.00;100706.63;4975550;28;20066;-75
2023/10/19 03:27:24;;;;;;;0.50;0.50;;;;;;;8.50;100.00;100697.66;4975430;28;20097;-77
2023/10/19 03:29:54;;;;;;;2.78;2.67;;;;;;;8.45;100.00;100708.97;4974990;28;20030;-77
2023/10/19 03:32:28;;;;;;;7.78;5.93;;;;;;;8.24;100.00;100687.69;4975447;28;20023;-76
2023/10/19 03:38:22;;;;;;;1.65;1.15;;;;;;;8.22;100.00;100692.03;4975886;28;20045;-77
2023/10/19 03:40:51;;;;;;;0.30;0.30;;;;;;;7.40;100.00;100594.19;4973711;28;20035;-76
2023/10/19 03:43:21;;;;;;;6.45;4.85;;;;;;;7.60;100.00;100590.97;4973113;28;20054;-75
2023/10/19 03:49:12;;;;;;;1.77;1.67;;;;;;;8.20;100.00;100673.72;4973558;28;20062;-76
2023/10/19 03:55:11;;;;;;;5.35;4.65;;;;;;;8.11;100.00;100685.78;4972328;28;20559;-78
2023/10/19 03:57:50;;;;;;;4.78;4.53;;;;;;;7.58;100.00;100579.63;4970006;28;20055;-77
2023/10/19 04:00:18;;;;;;;3.17;1.75;;;;;;;7.54;100.00;100580.47;4955441;28;20035;-78
2023/10/19 04:02:43;;;;;;;11.55;10.52;;;;;;;8.33;100.00;100706.13;4961289;28;20123;-76
2023/10/19 04:12:10;;;;;;;5.60;5.10;;;;;;;8.56;100.00;100682.94;4974935;28;20045;-76
2023/10/19 04:14:44;;;;;;;;;;;;;;;8.52;100.00;100675.94;4975405;28;20034;-75
2023/10/19 04:17:12;;;;;;;1.95;1.60;;;;;;;8.13;100.00;100677.09;4972649;28;19918;-76
2023/10/19 04:19:37;;;;;;;0.85;0.85;;;;;;;7.55;100.00;100574.38;4973084;28;20121;-76
2023/10/19 04:22:04;;;;;;;1.65;1.55;;;;;;;8.15;100.00;100670.16;4972126;28;20045;-75
2023/10/19 04:27:51;;;;;;;3.00;2.90;;;;;;;8.35;100.00;100652.13;4971195;28;20126;-74
2023/10/19 04:30:27;;;;;;;2.58;1.55;;;;;;;8.39;100.00;100646.06;4971776;28;20117;-75
2023/10/19 04:32:55;;;;;;;0.73;0.73;;;;;;;7.83;100.00;100559.97;4971164;28;20030;-75
2023/10/19 04:35:24;;;;;;;0.50;0.43;;;;;;;8.25;100.00;100674.66;4974106;28;20054;-75
2023/10/19 04:37:50;;;;;;;0.30;0.30;;;;;;;8.32;100.00;100674.75;4968512;28;20061;-75
2023/10/19 04:40:16;;;;;;;1.42;1.33;;;;;;;8.19;100.00;100673.69;4969967;28;20050;-76
2023/10/19 04:42:42;;;;;;;1.55;1.45;;;;;;;7.98;100.00;100671.63;4970150;28;20074;-75
2023/10/19 04:48:31;;;;;;;3.90;3.75;;;;;;;8.05;100.00;100668.25;4969555;28;20041;-74
2023/10/19 04:50:57;;;;;;;2.60;1.85;;;;;;;7.76;100.00;100556.41;4970576;28;20046;-76
2023/10/19 04:53:22;;;;;;;3.90;3.25;;;;;;;8.29;100.00;100678.19;4973613;28;20030;-75
2023/10/19 04:55:47;;;;;;;1.60;1.55;;;;;;;7.33;100.00;100529.69;4971043;28;20035;-75
2023/10/19 04:58:18;;;;;;;1.25;1.10;;;;;;;8.04;100.00;100676.97;4964445;28;20039;-75
2023/10/19 05:00:43;;;;;;;0.35;0.35;;;;;;;7.92;100.00;100653.28;4955653;28;20055;-75
2023/10/19 05:03:09;;;;;;;2.38;2.28;;;;;;;8.07;100.00;100681.34;4973111;28;20066;-76
2023/10/19 05:05:45;;;;;;;0.63;0.63;;;;;;;8.18;100.00;100682.41;4972482;28;20019;-76
2023/10/19 05:08:11;;;;;;;1.25;1.25;;;;;;;7.32;100.00;100558.34;4972920;28;20031;-75
2023/10/19 05:10:37;;;;;;;4.95;4.55;;;;;;;7.97;100.00;100678.59;4973032;28;20051;-77
2023/10/19 05:13:03;;;;;;;1.80;1.70;;;;;;;7.91;100.00;100690.69;4973334;28;20100;-78
2023/10/19 05:18:50;;;;;;;23.15;21.38;;;;;;;8.18;100.00;100669.31;4973743;28;20041;-77
2023/10/19 05:24:37;;;;;;;0.82;0.82;;;;;;;7.11;100.00;100551.06;4972642;28;20101;-77
2023/10/19 05:30:24;;;;;;;3.80;3.60;;;;;;;8.18;100.00;100675.44;4973847;28;20065;-75
2023/10/19 05:36:11;;;;;;;2.10;1.50;;;;;;;7.44;100.00;100534.16;4973125;28;20038;-77
2023/10/19 05:45:17;;;;;;;3.67;3.45;;;;;;;7.88;100.00;100615.75;4950604;28;20044;-77
2023/10/19 05:47:45;;;;;;;2.47;2.38;;;;;;;7.73;100.00;100571.16;4953906;28;20031;-77
2023/10/19 05:50:14;;;;;;;1.83;1.73;;;;;;;7.89;100.00;100562.69;4953512;28;20039;-76
2023/10/19 05:56:02;;;;;;;0.65;0.65;;;;;;;7.94;100.00;100581.03;4972829;28;20130;-76
2023/10/19 05:58:27;;;;;;;11.43;10.57;;;;;;;8.79;100.00;100684.94;4971071;28;20372;-76
2023/10/19 06:00:53;;;;;;;0.63;0.63;;;;;;;8.12;100.00;100590.81;4973475;28;20039;-75
2023/10/19 06:03:19;;;;;;;6.68;5.38;;;;;;;8.30;100.00;100606.75;4976345;28;20038;-75
2023/10/19 06:09:09;;;;;;;0.75;0.68;;;;;;;8.96;100.00;100682.53;4976782;28;20046;-77
2023/10/19 06:11:37;;;;;;;0.75;0.73;;;;;;;8.86;100.00;100679.78;4974505;28;20478;-76
2023/10/19 06:14:09;;;;;;;2.20;2.03;;;;;;;8.82;100.00;100648.34;4974868;28;20035;-77
2023/10/19 06:23:31;;;;;;;23.20;21.92;;;;;;;9.17;100.00;100680.13;4958764;28;20091;-75
2023/10/19 06:33:22;;;;;;;1.58;1.48;;;;;;;9.53;100.00;100670.88;4974217;28;20102;-77
2023/10/19 06:35:48;;;;;;;3.00;2.85;;;;;;;9.39;100.00;100659.38;4972749;28;20450;-76
2023/10/19 06:38:14;;;;;;;3.80;3.60;;;;;;;9.48;100.00;100652.50;4973867;28;20034;-76
2023/10/19 06:40:40;;;;;;;2.90;2.38;;;;;;;9.11;100.00;100561.38;4975998;28;20047;-76
2023/10/19 06:43:38;;;;;;;0.77;0.77;;;;;;;9.72;100.00;100658.78;4974496;28;20439;-75
2023/10/19 06:46:03;;;;;;;5.60;5.20;;;;;;;9.35;100.00;100537.16;4969721;28;20103;-77
2023/10/19 06:48:45;;;;;;;0.50;0.50;;;;;;;10.03;100.00;100643.25;4975475;28;20038;-77
2023/10/19 06:54:32;;;;;;;0.52;0.52;;;;;;;10.52;100.00;100619.91;4975214;28;20157;-75
2023/10/19 06:56:57;;;;;;;0.60;0.60;;;;;;;9.92;100.00;100507.75;4956590;28;20106;-75
2023/10/19 06:59:24;;;;;;;0.40;0.40;;;;;;;9.96;100.00;100484.19;4956169;28;20447;-76
2023/10/19 07:01:50;;;;;;;1.08;1.05;;;;;;;10.87;100.00;100604.25;4955544;28;20121;-75
2023/10/19 07:08:21;;;;;;;4.63;1.88;;;;;;;11.43;100.00;100586.78;4975443;28;20069;-81
2023/10/19 07:10:46;;;;;;;1.50;1.40;;;;;;;10.95;100.00;100470.38;4974552;28;20169;-75
2023/10/19 07:13:12;;;;;;;1.92;1.70;;;;;;;11.04;100.00;100461.63;4972064;28;20085;-76
2023/10/19 07:15:41;;;;;;;3.88;3.60;;;;;;;11.68;100.00;100526.28;4974815;28;20424;-77
2023/10/19 07:21:31;;;;;;;0.25;0.25;;;;;;;12.00;100.00;100565.66;4975128;28;20050;-76
2023/10/19 07:27:18;;;;;;;4.72;4.53;;;;;;;11.68;100.00;100466.69;4955032;28;20062;-75
2023/10/19 07:29:45;;;;;;;0.20;0.20;;;;;;;12.26;100.00;100552.41;4955646;28;20032;-75
2023/10/19 07:32:13;;;;;;;4.50;3.08;;;;;;;11.75;100.00;100457.03;4955188;28;20100;-75
2023/10/19 07:34:39;;;;;;;2.85;2.58;;;;;;;12.31;100.00;100545.38;4955075;28;20162;-75
2023/10/19 07:40:27;;;;;;;0.30;0.30;;;;;;;12.44;100.00;100549.69;4954847;28;20125;-75
2023/10/19 07:42:54;;;;;;;2.85;1.65;;;;;;;12.14;100.00;100466.53;4955197;28;20047;-75
2023/10/19 07:45:21;;;;;;;1.63;1.27;;;;;;;12.91;100.00;100536.25;4967631;28;21048;-75
2023/10/19 07:47:47;;;;;;;2.55;2.35;;;;;;;12.31;100.00;100444.50;4954387;28;20113;-74
2023/10/19 07:50:55;;;;;;;1.58;1.48;;;;;;;12.87;100.00;100546.78;4955869;28;20023;-76
2023/10/19 07:56:43;;;;;;;2.83;2.58;;;;;;;12.81;100.00;100467.84;4993715;28;20096;-74
2023/10/19 07:59:09;;;;;;;3.47;2.95;;;;;;;13.16;100.00;100527.25;4970583;28;20049;-74
2023/10/19 08:01:35;;;;;;;1.77;1.65;;;;;;;13.40;100.00;100536.72;4974341;28;20039;-74
2023/10/19 08:04:01;;;;;;;2.67;2.47;;;;;;;12.99;100.00;100452.75;4986870;28;20043;-75
2023/10/19 08:09:48;;;;;;;3.03;2.47;;;;;;;13.61;100.00;100530.34;4968818;28;20540;-76
2023/10/19 08:12:14;;;;;;;2.10;1.90;;;;;;;12.98;100.00;100400.97;4971635;28;20055;-75
2023/10/19 08:14:39;;;;;;;1.17;0.82;;;;;;;12.98;100.00;100416.78;4974538;28;20023;-75
2023/10/19 08:17:08;;;;;;;2.33;2.17;;;;;;;13.78;100.00;100527.53;4970534;28;20138;-75
2023/10/19 08:20:23;;;;;;;1.33;1.08;;;;;;;13.81;100.00;100529.25;4973873;28;20129;-75
2023/10/19 08:22:54;;;;;;;0.47;0.47;;;;;;;13.93;100.00;100523.84;4972233;28;20051;-75
2023/10/19 08:25:20;;;;;;;1.23;1.13;;;;;;;13.73;100.00;100469.56;4973077;28;20121;-75
2023/10/19 08:31:10;;;;;;;1.75;1.63;;;;;;;13.82;100.00;100499.38;4974172;28;20045;-75
2023/10/19 08:36:56;;;;;;;3.47;3.17;;;;;;;14.32;100.00;100521.59;4974040;28;20442;-76
2023/10/19 08:39:24;;;;;;;3.15;2.50;;;;;;;13.48;100.00;100418.88;4973059;28;20058;-74
2023/10/19 08:41:53;;;;;;;3.50;2.67;;;;;;;13.70;100.00;100430.03;4973679;28;20058;-75
2023/10/19 08:44:19;;;;;;;2.50;1.33;;;;;;;13.81;100.00;100443.06;4973988;28;20090;-75
2023/10/19 08:50:08;;;;;;;1.83;1.25;;;;;;;14.46;100.00;100516.97;4973718;28;20053;-74
2023/10/19 08:52:36;;;;;;;1.33;1.23;;;;;;;14.54;100.00;100519.56;4973406;28;20497;-75
2023/10/19 08:55:01;;;;;;;2.42;2.22;;;;;;;13.87;100.00;100414.00;4973222;28;20042;-75
2023/10/19 09:04:13;;;;;;;2.22;1.60;;;;;;;14.80;100.00;100486.56;4973603;28;20078;-76
2023/10/19 09:10:02;;;;;;;1.58;1.42;;;;;;;14.41;100.00;100401.78;4973418;28;20069;-75
2023/10/19 09:15:53;;;;;;;2.55;1.92;;;;;;;14.45;100.00;100482.69;4970803;28;20097;-75
2023/10/19 09:18:20;;;;;;;1.38;1.27;;;;;;;14.86;100.00;100476.78;4970580;28;20431;-76
2023/10/19 09:24:33;;;;;;;3.33;2.97;;;;;;;15.15;100.00;100478.94;4973092;28;20049;-75
2023/10/19 09:30:21;;;;;;;2.08;1.77;;;;;;;15.24;100.00;100462.03;4972851;28;20078;-75
2023/10/19 09:32:47;;;;;;;1.25;0.98;;;;;;;15.24;100.00;100455.84;4968832;28;20046;-75
2023/10/19 09:35:15;;;;;;;4.00;1.48;;;;;;;15.26;100.00;100456.72;4973054;28;20045;-75
2023/10/19 09:37:42;;;;;;;2.38;1.90;;;;;;;14.77;100.00;100360.69;4975093;28;20499;-75
2023/10/19 09:43:37;;;;;;;1.98;1.77;;;;;;;15.63;100.00;100456.88;4975151;28;20068;-75
2023/10/19 09:49:25;;;;;;;6.30;3.40;;;;;;;15.28;100.00;100379.09;4976659;28;20113;-76
2023/10/19 09:51:51;;;;;;;1.48;1.38;;;;;;;15.15;100.00;100359.13;4974599;28;20097;-76
2023/10/19 09:54:28;;;;;;;1.88;1.73;;;;;;;15.50;100.00;100400.72;4976544;28;20438;-73
2023/10/19 09:57:01;;;;;;;2.85;2.40;;;;;;;16.06;100.00;100433.94;4974332;28;20113;-74
2023/10/19 10:02:48;;;;;;;2.60;2.35;;;;;;;16.05;100.00;100382.78;4976552;28;20358;-75
2023/10/19 10:05:44;;;;;;;1.50;1.40;;;;;;;16.45;100.00;100425.09;4974875;28;20019;-74
2023/10/19 10:11:49;;;;;;;0.43;0.43;;;;;;;16.14;100.00;100355.25;4976885;28;20069;-74
2023/10/19 10:14:29;;;;;;;1.50;1.20;;;;;;;16.43;100.00;100410.13;4974684;28;20043;-76
2023/10/19 10:17:01;;;;;;;1.63;1.25;;;;;;;16.03;100.00;100359.00;4973292;28;20093;-74
2023/10/19 10:23:16;;;;;;;2.15;1.95;;;;;;;16.82;100.00;100410.97;4975945;28;20382;-75
2023/10/19 10:25:48;;;;;;;1.25;1.15;;;;;;;16.44;100.00;100383.63;4978601;28;20057;-76
2023/10/19 10:31:40;;;;;;;1.80;1.70;;;;;;;16.97;100.00;100361.09;4972166;28;20086;-75
2023/10/19 10:34:08;;;;;;;1.73;1.52;;;;;;;17.04;100.00;100371.53;4970840;28;20445;-74
2023/10/19 10:36:57;;;;;;;2.75;1.90;;;;;;;16.81;100.00;100379.19;4956145;28;20035;-76
2023/10/19 10:39:24;;;;;;;1.33;1.08;;;;;;;16.92;100.00;100378.91;4955923;28;20041;-75
2023/10/19 10:41:55;;;;;;;1.33;1.23;;;;;;;16.54;100.00;100282.75;4956229;28;20031;-76
2023/10/19 10:44:35;;;;;;;2.72;2.50;;;;;;;16.61;100.00;100279.00;4964083;28;20023;-76
2023/10/19 10:47:00;;;;;;;3.40;2.15;;;;;;;16.60;100.00;100322.28;4971165;28;20065;-76
2023/10/19 10:52:48;;;;;;;1.42;1.33;;;;;;;16.89;100.00;100244.69;4975816;28;20076;-76
2023/10/19 10:55:14;;;;;;;1.77;1.55;;;;;;;17.02;100.00;100264.66;4974629;28;20053;-78
2023/10/19 10:57:44;;;;;;;2.30;1.48;;;;;;;17.60;100.00;100344.25;4973137;28;20027;-81
2023/10/19 11:00:15;;;;;;;3.25;2.00;;;;;;;17.20;100.00;100246.44;4957215;28;20034;-76
2023/10/19 11:02:49;;;;;;;0.80;0.70;;;;;;;17.28;100.00;100249.75;4973733;28;20035;-76
2023/10/19 11:05:18;;;;;;;0.32;0.32;;;;;;;18.14;100.00;100332.00;4974847;28;20454;-77
2023/10/19 11:11:12;;;;;;;2.17;1.05;;;;;;;18.03;100.00;100297.84;4970934;28;20045;-80
2023/10/19 11:13:39;;;;;;;0.43;0.38;;;;;;;17.90;100.00;100257.53;4956459;28;20055;-76
2023/10/19 11:16:07;;;;;;;5.68;5.18;;;;;;;17.69;94.89;100226.34;4971502;28;20102;-77
2023/10/19 11:21:54;;;;;;;1.95;1.13;;;;;;;18.35;89.70;100323.34;4973165;28;20537;-76
2023/10/19 11:24:33;;;;;;;0.75;0.60;;;;;;;18.33;90.04;100300.38;4974737;28;20043;-77
2023/10/19 11:26:58;;;;;;;0.88;0.88;;;;;;;18.17;90.11;100312.44;4974561;28;20379;-78
2023/10/19 11:32:46;;;;;;;0.68;0.60;;;;;;;17.48;84.27;100210.19;4975450;28;20049;-77
2023/10/19 11:35:12;;;;;;;0.52;0.52;;;;;;;18.41;83.48;100294.81;4973973;28;20027;-77
2023/10/19 11:37:47;;;;;;;0.47;0.47;;;;;;;18.50;80.27;100295.38;4974940;28;20046;-77
2023/10/19 11:40:25;;;;;;;0.90;0.82;;;;;;;18.08;80.58;100204.75;4969784;28;20045;-79
2023/10/19 11:49:34;;;;;;;2.85;1.95;;;;;;;17.98;82.32;100161.72;4977147;28;20046;-77
2023/10/19 11:52:00;;;;;;;0.63;0.52;;;;;;;18.01;81.50;100158.94;4970700;28;20499;-76
2023/10/19 11:54:26;;;;;;;0.40;0.40;;;;;;;17.84;85.01;100156.00;4973282;28;20106;-74
2023/10/19 11:56:53;;;;;;;1.35;1.25;;;;;;;18.30;82.95;100258.00;4975785;28;20018;-75
2023/10/19 12:02:43;;;;;;;0.98;0.93;;;;;;;18.35;75.20;100256.94;4976280;28;20037;-76
2023/10/19 12:08:30;;;;;;;0.43;0.43;;;;;;;18.27;75.76;100252.78;4977955;28;20113;-78
2023/10/19 12:10:55;;;;;;;0.85;0.85;;;;;;;18.49;74.95;100255.56;4977353;28;20051;-76
2023/10/19 12:13:21;;;;;;;0.30;0.30;;;;;;;18.13;73.61;100185.06;4980562;28;20053;-78
2023/10/19 12:15:51;;;;;;;1.40;0.98;;;;;;;18.21;75.60;100223.78;4981245;28;20050;-78
2023/10/19 12:18:39;;;;;;;0.57;0.55;;;;;;;18.43;73.65;100238.06;4985611;28;20038;-78
2023/10/19 12:21:07;;;;;;;0.68;0.63;;;;;;;17.91;76.84;100144.25;4962369;28;20098;-77
2023/10/19 12:23:33;;;;;;;0.98;0.95;;;;;;;18.22;75.57;100226.38;4962025;29;20034;-76
2023/10/19 12:26:03;;;;;;;0.70;0.50;;;;;;;17.75;74.98;100135.94;4964906;28;20054;-76
2023/10/19 12:41:43;;;;;;;1.38;1.27;;;;;;;18.62;75.93;100210.81;4974598;28;20122;-76
2023/10/19 12:44:09;;;;;;;0.80;0.50;;;;;;;18.80;71.76;100212.84;4974211;28;20113;-76
2023/10/19 12:46:36;;;;;;;0.52;0.52;;;;;;;18.29;70.96;100102.19;4972616;28;20047;-76
2023/10/19 12:52:23;;;;;;;0.52;0.40;;;;;;;18.95;67.73;100198.09;4974099;28;20049;-77
2023/10/19 12:54:51;;;;;;;1.80;1.70;;;;;;;18.86;66.69;100139.94;4972125;28;20467;-75
2023/10/19 12:57:16;;;;;;;0.45;0.45;;;;;;;18.97;63.40;100174.97;4973513;28;20031;-77
2023/10/19 12:59:43;;;;;;;1.65;0.98;;;;;;;19.19;60.69;100183.81;4973844;28;20435;-77
2023/10/19 13:02:09;;;;;;;0.43;0.43;;;;;;;18.88;62.98;100087.59;4971358;28;20045;-75
2023/10/19 13:07:58;;;;;;;1.50;1.10;;;;;;;18.71;60.29;100107.69;4970696;28;20482;-77
2023/10/19 13:10:32;;;;;;;0.30;0.30;;;;;;;19.21;63.09;100189.09;4972767;28;20038;-77
2023/10/19 13:13:03;;;;;;;0.28;0.28;;;;;;;18.93;61.34;100165.38;4973229;28;20410;-76
2023/10/19 13:19:16;;;;;;;2.53;2.33;;;;;;;19.26;61.00;100170.28;4971720;28;20126;-76
2023/10/19 13:28:27;;;;;;;0.40;0.30;;;;;;;19.15;63.84;100157.41;4972558;28;20062;-76
2023/10/19 13:34:49;;;;;;;0.75;0.60;;;;;;;18.92;62.72;100140.59;4953767;28;20078;-78
2023/10/19 13:47:43;;;;;;;0.65;0.50;;;;;;;18.73;62.82;100126.22;4954207;28;20082;-77
2023/10/19 13:50:11;;;;;;;0.38;0.38;;;;;;;18.67;63.38;100121.16;4953590;28;20179;-76
2023/10/19 13:52:39;;;;;;;0.60;0.60;;;;;;;18.77;63.00;100114.56;4959093;28;20042;-75
2023/10/19 13:58:26;;;;;;;0.20;0.20;;;;;;;18.66;64.08;100098.13;4967969;28;20038;-76
2023/10/19 14:00:51;;;;;;;0.93;0.93;;;;;;;18.75;62.92;100108.41;4971531;28;20035;-77
2023/10/19 14:03:21;;;;;;;1.40;1.10;;;;;;;18.34;64.04;100045.31;4969898;28;20039;-77
2023/10/19 14:05:50;;;;;;;1.35;0.95;;;;;;;18.32;63.58;100046.28;4969504;28;20026;-76
2023/10/19 14:08:17;;;;;;;1.05;0.95;;;;;;;18.61;65.58;100081.50;4968635;28;20117;-76
2023/10/19 14:10:43;;;;;;;1.13;0.93;;;;;;;18.34;66.95;100055.94;4952470;28;20039;-76
2023/10/19 14:13:15;;;;;;;0.20;0.20;;;;;;;18.52;65.05;100080.94;4951178;28;20098;-77
2023/10/19 14:15:42;;;;;;;0.63;0.60;;;;;;;18.48;64.40;100086.44;4970443;28;20039;-77
2023/10/19 14:18:08;;;;;;;0.30;0.30;;;;;;;18.15;65.05;99985.84;4971335;28;20089;-77
2023/10/19 14:30:39;;;;;;;1.98;1.85;;;;;;;18.19;63.28;99984.81;4955251;28;20118;-76
2023/10/19 14:33:09;;;;;;;3.03;0.77;;;;;;;18.60;63.21;100062.03;4973227;28;20501;-77
2023/10/19 14:42:42;;;;;;;1.17;1.08;;;;;;;18.56;61.68;100061.28;4956437;28;20502;-77
2023/10/19 14:45:17;;;;;;;0.60;0.60;;;;;;;18.34;62.53;100021.41;4970994;28;20042;-77
2023/10/19 14:47:48;;;;;;;6.22;1.85;;;;;;;18.55;62.44;100056.03;4975651;28;20062;-77
2023/10/19 14:50:45;;;;;;;0.30;0.30;;;;;;;18.62;64.24;100068.16;4976288;28;20094;-76
2023/10/19 14:53:11;;;;;;;0.73;0.73;;;;;;;18.31;66.06;100041.91;4974178;28;20432;-77
2023/10/19 14:55:37;;;;;;;0.10;0.10;;;;;;;17.80;64.42;99960.59;4975477;28;20086;-76
2023/10/19 14:58:06;;;;;;;0.30;0.30;;;;;;;18.27;67.49;100072.16;4975043;28;20050;-76
2023/10/19 15:03:53;;;;;;;1.85;1.75;;;;;;;18.24;64.99;100069.59;4975437;28;20046;-76
2023/10/19 15:06:18;;;;;;;0.55;0.45;;;;;;;17.62;63.60;99959.47;4974695;28;20035;-77
2023/10/19 15:12:06;;;;;;;3.33;1.60;;;;;;;17.61;66.10;99958.63;4975216;28;20444;-75
2023/10/19 15:14:32;;;;;;;0.82;0.75;;;;;;;18.09;67.35;100055.97;4974040;28;20030;-77
2023/10/19 15:16:57;;;;;;;1.35;1.25;;;;;;;18.08;66.51;100051.59;4973634;28;20042;-76
2023/10/19 15:19:23;;;;;;;0.40;0.30;;;;;;;17.94;70.90;100051.25;4973617;28;20043;-77
2023/10/19 15:25:12;;;;;;;3.28;1.30;;;;;;;17.58;71.83;99985.25;4973727;28;20042;-76
2023/10/19 15:27:42;;;;;;;1.42;1.25;;;;;;;17.66;73.13;100015.03;4972864;28;20046;-76
2023/10/19 15:30:09;;;;;;;2.38;0.75;;;;;;;17.76;74.10;100047.41;4973229;28;20050;-76
2023/10/19 15:32:35;;;;;;;1.05;0.82;;;;;;;17.59;75.25;100031.22;4975412;28;20418;-76
2023/10/19 15:35:01;;;;;;;1.58;1.48;;;;;;;17.60;78.04;100036.47;4974369;28;20086;-75
2023/10/19 15:37:27;;;;;;;0.90;0.70;;;;;;;17.54;77.50;100044.66;4974548;28;20039;-76
2023/10/19 15:39:52;;;;;;;1.30;1.20;;;;;;;17.41;79.40;100028.28;4974623;28;20340;-77
2023/10/19 15:45:42;;;;;;;0.95;0.73;;;;;;;17.35;80.66;100040.88;4974933;28;20062;-76
2023/10/19 15:48:11;;;;;;;0.68;0.68;;;;;;;17.00;81.26;99989.94;4973250;28;20407;-76
2023/10/19 15:50:39;;;;;;;1.10;1.00;;;;;;;17.12;81.52;100015.16;4974748;28;20034;-76
2023/10/19 15:53:04;;;;;;;12.38;2.88;;;;;;;17.30;81.41;100046.34;4966238;28;20487;-75
2023/10/19 15:58:51;;;;;;;0.98;0.88;;;;;;;16.69;86.76;99974.97;4974714;28;20099;-76
2023/10/19 16:01:17;;;;;;;1.63;1.15;;;;;;;16.88;88.35;100023.00;4958317;28;20559;-76
2023/10/19 16:03:43;;;;;;;1.27;0.98;;;;;;;16.12;92.25;99947.63;4970832;28;20053;-76
2023/10/19 16:06:09;;;;;;;3.00;2.70;;;;;;;16.49;93.23;100010.06;4960727;28;20049;-76
2023/10/19 16:11:56;;;;;;;1.25;1.08;;;;;;;16.63;96.67;100042.28;4954185;28;20392;-74
2023/10/19 16:14:23;;;;;;;0.90;0.88;;;;;;;16.67;100.00;100054.53;4957730;28;20019;-74
2023/10/19 16:16:51;;;;;;;0.77;0.60;;;;;;;16.63;100.00;100049.38;4953680;28;20054;-74
2023/10/19 16:22:38;;;;;;;1.35;1.13;;;;;;;16.36;100.00;100037.81;4973980;28;20046;-76
2023/10/19 16:28:28;;;;;;;1.20;1.10;;;;;;;15.67;100.00;99937.47;4974293;28;20364;-76
2023/10/19 16:34:31;;;;;;;37.17;3.78;;;;;;;16.20;100.00;100043.56;4965573;28;20145;-75
2023/10/19 16:40:18;;;;;;;19.55;5.97;;;;;;;15.60;100.00;99949.13;4955064;28;20053;-78
2023/10/19 16:42:44;;;;;;;2.38;1.52;;;;;;;15.56;100.00;99944.81;4954240;28;20047;-76
2023/10/19 16:45:12;;;;;;;3.80;2.50;;;;;;;16.10;100.00;100039.44;4953956;28;20062;-77
2023/10/19 16:47:41;;;;;;;13.07;3.75;;;;;;;15.55;100.00;99945.75;4954919;28;20027;-77
2023/10/19 16:53:28;;;;;;;1.60;1.50;;;;;;;15.79;100.00;100039.44;4972514;28;20080;-75
2023/10/19 16:56:04;;;;;;;1.02;0.93;;;;;;;15.64;100.00;100019.53;4971639;28;20092;-76
2023/10/19 16:58:29;;;;;;;1.65;1.38;;;;;;;15.43;100.00;99994.53;4965153;28;20035;-76
2023/10/19 17:01:16;;;;;;;4.82;3.22;;;;;;;15.67;100.00;100042.41;4951554;28;20479;-76
2023/10/19 17:10:24;;;;;;;3.38;3.08;;;;;;;15.65;100.00;100030.97;4954301;28;20054;-77
2023/10/19 17:12:49;;;;;;;9.98;4.85;;;;;;;15.18;100.00;99955.53;4954094;28;20395;-76